createdAt,value
2018-05-09T00:01:33.382Z,100119.44
2018-05-09T00:04:02.010Z,100118.39
2018-05-09T00:06:30.629Z,100118.20
2018-05-09T00:08:59.271Z,100124.80
2018-05-09T00:11:27.913Z,100118.78
2018-05-09T00:13:59.293Z,100116.72
2018-05-09T00:16:31.448Z,100118.17
2018-05-09T00:19:00.265Z,100115.25
2018-05-09T00:21:29.199Z,100113.00
2018-05-09T00:23:58.280Z,100116.14
2018-05-09T00:26:27.846Z,100109.40
2018-05-09T00:28:56.906Z,100114.87
2018-05-09T00:31:26.263Z,100108.58
2018-05-09T00:33:55.415Z,100110.77
2018-05-09T00:36:23.944Z,100105.98
2018-05-09T00:38:54.791Z,100100.27
2018-05-09T00:41:23.423Z,100105.75
2018-05-09T00:43:59.419Z,100095.67
2018-05-09T00:46:28.026Z,100099.02
2018-05-09T00:48:56.856Z,100103.50
2018-05-09T00:51:25.468Z,100096.30
2018-05-09T00:53:54.121Z,100098.96
2018-05-09T00:56:23.772Z,100094.09
2018-05-09T00:58:52.404Z,100089.45
2018-05-09T01:01:21.015Z,100091.05
2018-05-09T01:03:49.673Z,100090.80
2018-05-09T01:06:18.295Z,100087.70
2018-05-09T01:08:54.314Z,100091.56
2018-05-09T01:11:22.949Z,100090.42
2018-05-09T01:13:51.568Z,100089.47
2018-05-09T01:16:20.209Z,100082.22
2018-05-09T01:18:48.812Z,100087.06
2018-05-09T01:21:17.454Z,100089.59
2018-05-09T01:23:46.079Z,100088.16
2018-05-09T01:26:14.786Z,100082.45
2018-05-09T01:28:43.330Z,100086.27
2018-05-09T01:31:11.971Z,100084.77
2018-05-09T01:33:40.590Z,100077.36
2018-05-09T01:36:09.256Z,100078.72
2018-05-09T01:38:39.968Z,100082.62
2018-05-09T01:41:08.605Z,100081.45
2018-05-09T01:43:37.216Z,100083.09
2018-05-09T01:46:05.848Z,100080.89
2018-05-09T01:48:34.468Z,100083.63
2018-05-09T01:51:03.153Z,100080.04
2018-05-09T01:53:31.776Z,100075.94
2018-05-09T01:56:00.435Z,100076.66
2018-05-09T01:58:29.080Z,100073.77
2018-05-09T02:00:57.715Z,100072.13
2018-05-09T02:03:26.373Z,100071.77
2018-05-09T02:05:54.992Z,100063.45
2018-05-09T02:08:23.633Z,100063.99
2018-05-09T02:10:52.406Z,100066.70
2018-05-09T02:13:21.046Z,100064.47
2018-05-09T02:15:49.676Z,100065.88
2018-05-09T02:18:18.318Z,100063.32
2018-05-09T02:20:46.958Z,100060.54
2018-05-09T02:23:15.634Z,100066.05
2018-05-09T02:25:44.253Z,100065.92
2018-05-09T02:28:12.901Z,100060.67
2018-05-09T02:30:41.508Z,100055.09
2018-05-09T02:33:10.157Z,100054.02
2018-05-09T02:35:38.767Z,100058.25
2018-05-09T02:38:07.410Z,100050.66
2018-05-09T02:40:36.273Z,100050.45
2018-05-09T02:43:04.881Z,100048.14
2018-05-09T02:45:33.528Z,100049.78
2018-05-09T02:48:02.161Z,100045.74
2018-05-09T02:50:30.808Z,100045.13
2018-05-09T02:52:59.482Z,100049.81
2018-05-09T02:55:28.124Z,100050.06
2018-05-09T02:57:56.744Z,100056.08
2018-05-09T03:00:25.399Z,100051.91
2018-05-09T03:02:54.058Z,100050.09
2018-05-09T03:05:22.701Z,100056.31
2018-05-09T03:07:51.343Z,100054.36
2018-05-09T03:10:19.980Z,100055.34
2018-05-09T03:12:48.589Z,100056.48
2018-05-09T03:15:17.246Z,100057.86
2018-05-09T03:17:46.020Z,100058.08
2018-05-09T03:20:14.687Z,100065.50
2018-05-09T03:22:44.927Z,100058.29
2018-05-09T03:25:13.829Z,100059.39
2018-05-09T03:27:44.316Z,100059.19
2018-05-09T03:30:14.803Z,100056.70
2018-05-09T03:32:43.674Z,100060.66
2018-05-09T03:35:12.565Z,100059.85
2018-05-09T03:37:41.205Z,100058.72
2018-05-09T03:40:09.866Z,100057.68
2018-05-09T03:42:38.508Z,100057.05
2018-05-09T03:45:07.155Z,100058.08
2018-05-09T03:47:35.794Z,100054.61
2018-05-09T03:50:04.424Z,100055.66
2018-05-09T03:52:33.042Z,100056.33
2018-05-09T03:55:01.630Z,100048.59
2018-05-09T03:57:30.643Z,100045.52
2018-05-09T03:59:59.244Z,100056.81
2018-05-09T04:03:05.168Z,100058.39
2018-05-09T04:06:10.799Z,100064.55
2018-05-09T04:09:16.911Z,100056.78
2018-05-09T04:11:45.870Z,100054.40
2018-05-09T04:14:14.681Z,100048.88
2018-05-09T04:16:43.875Z,100059.98
2018-05-09T04:19:12.944Z,100053.45
2018-05-09T04:21:41.782Z,100055.96
2018-05-09T04:24:10.974Z,100058.95
2018-05-09T04:26:39.740Z,100054.14
2018-05-09T04:29:08.823Z,100051.16
2018-05-09T04:31:38.454Z,100047.00
2018-05-09T04:34:07.349Z,100041.16
2018-05-09T04:36:36.518Z,100049.30
2018-05-09T04:39:05.289Z,100057.99
2018-05-09T04:41:34.349Z,100057.27
2018-05-09T04:44:03.536Z,100053.80
2018-05-09T04:46:32.514Z,100053.63
2018-05-09T04:49:01.286Z,100055.92
2018-05-09T04:51:30.213Z,100058.91
2018-05-09T04:53:58.842Z,100063.57
2018-05-09T04:56:27.437Z,100062.30
2018-05-09T04:58:56.043Z,100069.01
2018-05-09T05:01:24.678Z,100069.05
2018-05-09T05:03:53.277Z,100075.81
2018-05-09T05:06:21.919Z,100072.73
2018-05-09T05:08:50.529Z,100068.80
2018-05-09T05:11:19.185Z,100071.14
2018-05-09T05:13:50.238Z,100066.23
2018-05-09T05:16:18.888Z,100064.45
2018-05-09T05:18:47.493Z,100065.04
2018-05-09T05:21:16.127Z,100063.41
2018-05-09T05:23:44.736Z,100061.58
2018-05-09T05:26:13.380Z,100058.20
2018-05-09T05:28:41.977Z,100056.83
2018-05-09T05:31:10.590Z,100055.79
2018-05-09T05:33:39.245Z,100057.53
2018-05-09T05:36:07.848Z,100059.49
2018-05-09T05:38:36.477Z,100063.83
2018-05-09T05:41:05.094Z,100058.38
2018-05-09T05:43:33.729Z,100065.67
2018-05-09T05:46:02.352Z,100059.39
2018-05-09T05:48:30.988Z,100059.58
2018-05-09T05:50:59.590Z,100061.39
2018-05-09T05:53:28.234Z,100060.80
2018-05-09T05:55:56.848Z,100054.07
2018-05-09T05:58:25.483Z,100053.35
2018-05-09T06:00:54.082Z,100060.62
2018-05-09T06:03:22.748Z,100060.31
2018-05-09T06:05:51.359Z,100062.58
2018-05-09T06:08:19.962Z,100066.56
2018-05-09T06:10:48.597Z,100071.38
2018-05-09T06:13:17.197Z,100070.92
2018-05-09T06:15:45.978Z,100063.66
2018-05-09T06:18:14.576Z,100069.33
2018-05-09T06:20:43.413Z,100070.48
2018-05-09T06:23:14.893Z,100069.52
2018-05-09T06:25:43.541Z,100069.51
2018-05-09T06:28:12.168Z,100073.76
2018-05-09T06:30:40.810Z,100073.56
2018-05-09T06:33:09.443Z,100079.91
2018-05-09T06:35:38.099Z,100071.30
2018-05-09T06:38:06.745Z,100070.28
2018-05-09T06:40:35.447Z,100072.05
2018-05-09T06:43:04.027Z,100065.30
2018-05-09T06:45:32.938Z,100052.05
2018-05-09T06:48:01.525Z,100058.47
2018-05-09T06:50:30.133Z,100057.86
2018-05-09T06:52:58.792Z,100059.59
2018-05-09T06:55:27.401Z,100057.16
2018-05-09T06:57:56.054Z,100053.28
2018-05-09T07:00:24.666Z,100057.77
2018-05-09T07:02:53.319Z,100058.48
2018-05-09T07:05:21.928Z,100056.48
2018-05-09T07:07:50.590Z,100052.83
2018-05-09T07:10:19.195Z,100059.42
2018-05-09T07:12:47.825Z,100051.23
2018-05-09T07:15:18.700Z,100055.48
2018-05-09T07:17:48.330Z,100047.80
2018-05-09T07:20:16.964Z,100043.33
2018-05-09T07:22:45.617Z,100038.52
2018-05-09T07:25:14.216Z,100035.44
2018-05-09T07:27:42.865Z,100034.49
2018-05-09T07:30:11.488Z,100036.13
2018-05-09T07:32:40.181Z,100042.84
2018-05-09T07:35:08.815Z,100038.64
2018-05-09T07:37:37.439Z,100046.28
2018-05-09T07:40:06.072Z,100041.70
2018-05-09T07:42:34.715Z,100046.31
2018-05-09T07:45:05.865Z,100044.72
2018-05-09T07:47:34.501Z,100039.45
2018-05-09T07:50:03.144Z,100039.48
2018-05-09T07:52:31.773Z,100035.94
2018-05-09T07:55:00.412Z,100044.24
2018-05-09T07:57:29.040Z,100048.62
2018-05-09T07:59:57.684Z,100054.95
2018-05-09T08:02:26.310Z,100054.69
2018-05-09T08:04:54.963Z,100056.75
2018-05-09T08:07:23.592Z,100049.08
2018-05-09T08:09:52.247Z,100049.23
2018-05-09T08:12:20.851Z,100052.98
2018-05-09T08:14:49.446Z,100040.97
2018-05-09T08:17:19.586Z,100046.03
2018-05-09T08:19:48.422Z,100042.23
2018-05-09T08:22:19.025Z,100036.44
2018-05-09T08:24:47.769Z,100038.33
2018-05-09T08:27:16.853Z,100043.98
2018-05-09T08:29:47.048Z,100036.91
2018-05-09T08:32:17.055Z,100035.59
2018-05-09T08:34:46.897Z,100037.86
2018-05-09T08:37:17.652Z,100040.87
2018-05-09T08:39:46.549Z,100040.94
2018-05-09T08:42:17.915Z,100044.23
2018-05-09T08:44:50.527Z,100045.83
2018-05-09T08:47:22.616Z,100046.14
2018-05-09T08:49:57.334Z,100039.89
2018-05-09T08:52:34.627Z,100049.33
2018-05-09T08:55:06.646Z,100038.25
2018-05-09T08:57:40.320Z,100037.09
2018-05-09T09:00:10.723Z,100045.75
2018-05-09T09:02:42.716Z,100042.58
2018-05-09T09:05:15.587Z,100035.39
2018-05-09T09:07:44.831Z,100031.72
2018-05-09T09:10:13.557Z,100028.11
2018-05-09T09:12:46.481Z,100028.89
2018-05-09T09:15:17.267Z,100026.09
2018-05-09T09:17:47.481Z,100025.19
2018-05-09T09:20:17.726Z,100023.08
2018-05-09T09:22:47.755Z,100023.86
2018-05-09T09:25:19.801Z,100012.44
2018-05-09T09:27:49.974Z,100022.25
2018-05-09T09:30:22.854Z,100019.62
2018-05-09T09:32:55.239Z,100012.58
2018-05-09T09:35:25.593Z,100016.02
2018-05-09T09:38:08.959Z,100016.88
2018-05-09T09:40:39.321Z,100013.41
2018-05-09T09:43:10.810Z,100013.23
2018-05-09T09:45:45.795Z,100009.53
2018-05-09T09:53:57.280Z,100006.27
2018-05-09T09:56:26.370Z,100013.45
2018-05-09T09:58:59.988Z,100004.03
2018-05-09T10:01:33.025Z,100000.20
2018-05-09T10:04:10.800Z,100001.25
2018-05-09T10:06:44.485Z,100004.28
2018-05-09T10:09:17.121Z,99993.28
2018-05-09T10:11:49.238Z,99992.67
2018-05-09T10:14:21.143Z,99987.52
2018-05-09T10:16:52.587Z,99981.27
2018-05-09T10:19:24.038Z,99981.57
2018-05-09T10:21:56.705Z,99981.70
2018-05-09T10:24:31.759Z,99974.83
2018-05-09T10:27:03.510Z,99974.20
2018-05-09T10:29:43.338Z,99974.67
2018-05-09T10:35:07.251Z,99970.38
2018-05-09T10:37:36.859Z,99963.78
2018-05-09T10:40:07.060Z,99958.64
2018-05-09T10:42:45.434Z,99964.75
2018-05-09T10:48:05.932Z,99963.22
2018-05-09T10:50:42.176Z,99961.41
2018-05-09T10:53:14.366Z,99963.41
2018-05-09T10:55:52.114Z,99958.42
2018-05-09T10:58:33.628Z,99956.45
2018-05-09T11:01:07.247Z,99948.52
2018-05-09T11:06:27.824Z,99953.36
2018-05-09T11:09:06.257Z,99955.78
2018-05-09T11:11:45.200Z,99950.79
2018-05-09T11:17:07.106Z,99944.10
2018-05-09T11:19:44.937Z,99938.86
2018-05-09T11:25:05.201Z,99942.64
2018-05-09T11:27:34.966Z,99937.64
2018-05-09T11:30:04.422Z,99934.09
2018-05-09T11:32:33.963Z,99930.03
2018-05-09T11:35:09.153Z,99925.91
2018-05-09T11:37:38.165Z,99923.89
2018-05-09T11:40:08.709Z,99928.62
2018-05-09T11:42:37.525Z,99915.35
2018-05-09T11:45:06.199Z,99913.81
2018-05-09T11:47:36.905Z,99914.59
2018-05-09T11:50:06.821Z,99902.72
2018-05-09T11:52:52.264Z,99904.71
2018-05-09T11:55:21.114Z,99902.27
2018-05-09T12:00:37.379Z,99892.66
2018-05-09T12:03:09.865Z,99893.78
2018-05-09T12:05:38.896Z,99898.12
2018-05-09T12:08:08.205Z,99895.75
2018-05-09T12:10:36.978Z,99887.88
2018-05-09T12:13:05.606Z,99884.84
2018-05-09T12:15:34.327Z,99885.63
2018-05-09T12:20:51.903Z,99874.89
2018-05-09T12:23:21.082Z,99874.25
2018-05-09T12:25:50.148Z,99869.17
2018-05-09T12:28:21.155Z,99861.49
2018-05-09T12:30:57.145Z,99857.05
2018-05-09T12:33:31.764Z,99866.98
2018-05-09T12:36:07.411Z,99874.54
2018-05-09T12:41:25.834Z,99872.88
2018-05-09T12:44:10.138Z,99875.06
2018-05-09T12:46:40.499Z,99870.25
2018-05-09T12:49:09.299Z,99866.32
2018-05-09T12:51:39.253Z,99862.22
2018-05-09T12:56:55.471Z,99848.48
2018-05-09T12:59:25.087Z,99855.92
2018-05-09T13:01:54.118Z,99848.98
2018-05-09T13:04:23.159Z,99842.91
2018-05-09T13:06:53.998Z,99844.98
2018-05-09T13:09:30.846Z,99840.91
2018-05-09T13:12:03.380Z,99840.31
2018-05-09T13:14:34.608Z,99843.23
2018-05-09T13:17:08.187Z,99847.00
2018-05-09T13:19:40.583Z,99840.95
2018-05-09T13:22:09.538Z,99839.77
2018-05-09T13:24:38.234Z,99839.75
2018-05-09T13:27:06.974Z,99833.33
2018-05-09T13:29:37.853Z,99836.93
2018-05-09T13:32:07.598Z,99832.20
2018-05-09T13:34:37.213Z,99822.95
2018-05-09T13:37:25.042Z,99816.62
2018-05-09T13:42:49.517Z,99819.63
2018-05-09T13:48:11.416Z,99809.77
2018-05-09T13:50:43.221Z,99794.20
2018-05-09T13:56:09.192Z,99788.09
2018-05-09T13:58:40.639Z,99784.34
2018-05-09T14:01:11.879Z,99780.42
2018-05-09T14:03:50.888Z,99775.48
2018-05-09T14:06:20.053Z,99771.92
2018-05-09T14:08:52.376Z,99773.22
2018-05-09T14:11:29.083Z,99757.70
2018-05-09T14:13:58.729Z,99761.25
2018-05-09T14:16:27.447Z,99755.98
2018-05-09T14:18:58.117Z,99755.66
2018-05-09T14:21:26.777Z,99759.50
2018-05-09T14:24:03.941Z,99762.16
2018-05-09T14:26:33.702Z,99757.21
2018-05-09T14:29:05.098Z,99751.44
2018-05-09T14:34:21.676Z,99748.50
2018-05-09T14:36:50.932Z,99749.53
2018-05-09T14:39:23.908Z,99748.03
2018-05-09T14:41:53.023Z,99742.02
2018-05-09T14:44:23.749Z,99737.70
2018-05-09T14:47:03.599Z,99738.22
2018-05-09T14:49:39.303Z,99738.57
2018-05-09T14:52:09.228Z,99734.58
2018-05-09T14:57:28.622Z,99730.94
2018-05-09T15:00:10.377Z,99730.33
2018-05-09T15:02:42.032Z,99737.20
2018-05-09T15:05:10.919Z,99735.80
2018-05-09T15:07:39.554Z,99733.81
2018-05-09T15:10:08.239Z,99734.09
2018-05-09T15:12:36.900Z,99729.83
2018-05-09T15:15:06.095Z,99731.73
2018-05-09T15:20:30.223Z,99729.47
2018-05-09T15:23:16.117Z,99725.64
2018-05-09T15:25:50.940Z,99725.95
2018-05-09T15:28:25.186Z,99720.43
2018-05-09T15:33:52.332Z,99711.75
2018-05-09T15:36:22.754Z,99714.73
2018-05-09T15:38:55.269Z,99703.09
2018-05-09T15:41:28.431Z,99705.27
2018-05-09T15:43:58.843Z,99696.39
2018-05-09T15:46:28.125Z,99697.78
2018-05-09T15:48:57.101Z,99694.48
2018-05-09T15:51:26.207Z,99697.80
2018-05-09T15:53:55.426Z,99697.13
2018-05-09T15:56:25.368Z,99694.73
2018-05-09T15:58:54.402Z,99697.44
2018-05-09T16:01:25.809Z,99698.95
2018-05-09T16:03:54.680Z,99694.47
2018-05-09T16:06:24.144Z,99691.42
2018-05-09T16:08:53.357Z,99680.37
2018-05-09T16:11:22.287Z,99688.69
2018-05-09T16:13:50.969Z,99689.75
2018-05-09T16:16:19.562Z,99694.06
2018-05-09T16:18:48.240Z,99690.63
2018-05-09T16:21:17.019Z,99689.08
2018-05-09T16:23:48.779Z,99681.65
2018-05-09T16:26:15.300Z,99694.20
2018-05-09T16:29:05.068Z,99688.36
2018-05-09T16:31:38.293Z,99683.53
2018-05-09T16:34:07.044Z,99681.24
2018-05-09T16:36:40.926Z,99686.08
2018-05-09T16:39:07.743Z,99687.30
2018-05-09T16:41:36.467Z,99691.28
2018-05-09T16:44:05.494Z,99695.96
2018-05-09T16:46:37.117Z,99699.55
2018-05-09T16:49:05.866Z,99695.15
2018-05-09T16:51:34.559Z,99692.95
2018-05-09T16:54:12.052Z,99686.03
2018-05-09T16:56:40.807Z,99691.99
2018-05-09T16:59:25.044Z,99681.08
2018-05-09T17:01:54.043Z,99683.44
2018-05-09T17:04:22.635Z,99683.88
2018-05-09T17:06:54.750Z,99686.66
2018-05-09T17:12:08.853Z,99683.83
2018-05-09T17:14:42.409Z,99687.34
2018-05-09T17:17:11.109Z,99689.13
2018-05-09T17:19:39.857Z,99688.83
2018-05-09T17:22:37.989Z,99689.71
2018-05-09T17:25:08.519Z,99695.16
2018-05-09T17:27:37.483Z,99693.93
2018-05-09T17:30:07.247Z,99696.39
2018-05-09T17:32:36.887Z,99688.00
2018-05-09T17:46:15.954Z,99686.08
2018-05-09T17:48:46.353Z,99685.98
2018-05-09T17:51:15.100Z,99683.65
2018-05-09T17:56:48.250Z,99687.24
2018-05-09T18:27:18.791Z,99699.02
2018-05-09T19:30:53.704Z,99725.39
2018-05-09T20:04:23.017Z,99737.20
2018-05-09T20:18:27.438Z,99724.73
2018-05-09T20:20:58.192Z,99725.17
2018-05-09T21:25:08.396Z,99757.40
2018-05-09T21:27:38.202Z,99754.02
2018-05-09T21:30:09.160Z,99751.96
2018-05-09T21:32:38.311Z,99754.47
2018-05-09T21:35:09.810Z,99749.83
2018-05-09T21:37:44.868Z,99755.34
2018-05-09T21:40:14.177Z,99759.72
2018-05-09T21:42:46.208Z,99756.99
2018-05-09T21:45:15.368Z,99755.11
2018-05-09T21:47:53.032Z,99751.59
2018-05-09T21:50:23.345Z,99752.66
2018-05-09T21:52:52.494Z,99753.27
2018-05-09T21:55:27.611Z,99757.15
2018-05-09T21:57:58.168Z,99754.36
2018-05-09T22:00:35.598Z,99758.88
2018-05-09T22:03:04.654Z,99752.71
2018-05-09T22:05:34.235Z,99743.80
2018-05-09T22:08:13.652Z,99745.28
2018-05-09T22:10:42.825Z,99744.06
2018-05-09T22:13:13.387Z,99738.38
2018-05-09T22:15:43.242Z,99740.28
2018-05-09T22:21:01.511Z,99736.27
2018-05-09T22:23:34.695Z,99734.28
2018-05-09T22:26:05.419Z,99735.20
2018-05-09T22:28:35.372Z,99732.03
2018-05-09T22:31:07.719Z,99731.19
2018-05-09T22:36:28.836Z,99721.90
2018-05-09T22:41:53.410Z,99722.70
2018-05-09T22:44:40.470Z,99715.92
2018-05-09T22:47:15.412Z,99715.02
2018-05-09T22:49:44.529Z,99723.69
2018-05-09T22:55:08.597Z,99730.73
2018-05-09T22:57:34.455Z,99723.90
2018-05-09T23:00:09.953Z,99716.53
2018-05-09T23:02:47.237Z,99709.02
2018-05-09T23:05:18.630Z,99709.59
2018-05-09T23:07:49.288Z,99702.80
2018-05-09T23:10:20.323Z,99702.72
2018-05-09T23:12:51.112Z,99706.31
2018-05-09T23:15:27.160Z,99705.31
2018-05-09T23:20:52.406Z,99699.13
2018-05-09T23:23:24.870Z,99699.16
2018-05-09T23:25:55.664Z,99692.42
2018-05-09T23:28:25.615Z,99694.95
2018-05-09T23:42:14.858Z,99674.78
2018-05-09T23:53:09.640Z,99676.70
